PWSweather.com
Personal Weather Stations
Station Observations
SUBOTICARS
SuboticaYU

SuboticaYU

Lat: 46.1296717, Lon: 19.641551

Elevation: 361

Station Type: Nexus

http://sumeteo.info

High Low Average
Temperature 47.1°F8.4°C 34.0°F1.1°C 38.7°F3.7°C
Dew Point 32.7°F0.4°C 19.0°F-7.2°C 26.7°F-2.9°C
Winds 20.7 mph 33.3 kmh 3.5 mph 5.6 kmh 7.0 mph WNW11.3 kmh WNW
Wind Gusts 28.8 mph46.3 kmh 3.5 mph5.6 kmh 9.0 mph14.5 kmh
Humidity 80% 48% 63%
Pressure 29.42 in996.3 mb 29.02 in982.7 mb -
Precipitation 0.03 in0.8 mm - -
Hour Temp Dew Point Humidity Winds Wind Gusts Pressure Precip Precip Rate Daily Precip Total
12:00 AM 35.2°F1.8°C 27.4°F-2.6°C 73% 3.5 mph SW5.6 kmh SW 3.5 mph5.6 kmh 29.12 in986.1 mb - 0.00 in0.0 mm 0.00 in0.0 mm
12:10 AM 35.2°F1.8°C 27.4°F-2.6°C 73% 4.6 mph WSW7.4 kmh WSW 5.8 mph9.3 kmh 29.12 in986.1 mb - 0.00 in0.0 mm 0.00 in0.0 mm
12:15 AM 35.2°F1.8°C 27.4°F-2.6°C 73% 4.6 mph SW7.4 kmh SW 4.6 mph7.4 kmh 29.13 in986.5 mb - 0.00 in0.0 mm 0.00 in0.0 mm
12:20 AM 35.6°F2.0°C 27.8°F-2.3°C 73% 5.8 mph SW9.3 kmh SW 8.1 mph13.0 kmh 29.13 in986.5 mb - 0.00 in0.0 mm 0.00 in0.0 mm
12:25 AM 35.6°F2.0°C 27.8°F-2.3°C 73% 4.6 mph WSW7.4 kmh WSW 5.8 mph9.3 kmh 29.13 in986.5 mb - 0.00 in0.0 mm 0.00 in0.0 mm
12:30 AM 35.6°F2.0°C 27.8°F-2.3°C 73% 4.6 mph SSW7.4 kmh SSW 4.6 mph7.4 kmh 29.12 in986.1 mb - 0.00 in0.0 mm 0.00 in0.0 mm
12:35 AM 35.6°F2.0°C 28.1°F-2.2°C 74% 4.6 mph SSW7.4 kmh SSW 5.8 mph9.3 kmh 29.12 in986.1 mb - 0.00 in0.0 mm 0.00 in0.0 mm
12:40 AM 35.6°F2.0°C 28.1°F-2.2°C 74% 4.6 mph SW7.4 kmh SW 5.8 mph9.3 kmh 29.12 in986.1 mb - 0.00 in0.0 mm 0.00 in0.0 mm
12:45 AM 35.6°F2.0°C 28.1°F-2.2°C 74% 5.8 mph SW9.3 kmh SW 8.1 mph13.0 kmh 29.11 in985.8 mb - 0.00 in0.0 mm 0.00 in0.0 mm
12:50 AM 35.8°F2.1°C 28.3°F-2.1°C 74% 6.9 mph SSW11.1 kmh SSW 8.1 mph13.0 kmh 29.11 in985.8 mb - 0.00 in0.0 mm 0.00 in0.0 mm
12:55 AM 35.6°F2.0°C 27.8°F-2.3°C 73% 6.9 mph SW11.1 kmh SW 8.1 mph13.0 kmh 29.11 in985.8 mb - 0.00 in0.0 mm 0.00 in0.0 mm
01:00 AM 35.6°F2.0°C 27.8°F-2.3°C 73% 4.6 mph SW7.4 kmh SW 5.8 mph9.3 kmh 29.09 in985.1 mb - 0.00 in0.0 mm 0.00 in0.0 mm
01:10 AM 35.4°F1.9°C 28.0°F-2.2°C 74% 5.8 mph S9.3 kmh S 8.1 mph13.0 kmh 29.09 in985.1 mb - 0.00 in0.0 mm 0.00 in0.0 mm
01:15 AM 35.4°F1.9°C 28.0°F-2.2°C 74% 5.8 mph SSW9.3 kmh SSW 5.8 mph9.3 kmh 29.08 in984.8 mb - 0.00 in0.0 mm 0.00 in0.0 mm
01:20 AM 35.4°F1.9°C 27.6°F-2.4°C 73% 4.6 mph SSW7.4 kmh SSW 4.6 mph7.4 kmh 29.08 in984.8 mb - 0.00 in0.0 mm 0.00 in0.0 mm
01:25 AM 35.2°F1.8°C 27.4°F-2.6°C 73% 5.8 mph SW9.3 kmh SW 6.9 mph11.1 kmh 29.08 in984.8 mb - 0.00 in0.0 mm 0.00 in0.0 mm
01:30 AM 35.2°F1.8°C 27.8°F-2.3°C 74% 5.8 mph SW9.3 kmh SW 3.5 mph5.6 kmh 29.07 in984.4 mb - 0.00 in0.0 mm 0.00 in0.0 mm
01:35 AM 35.2°F1.8°C 27.8°F-2.3°C 74% 5.8 mph SSW9.3 kmh SSW 6.9 mph11.1 kmh 29.07 in984.4 mb - 0.00 in0.0 mm 0.00 in0.0 mm
01:40 AM 35.2°F1.8°C 27.8°F-2.3°C 74% 4.6 mph SW7.4 kmh SW 4.6 mph7.4 kmh 29.07 in984.4 mb - 0.00 in0.0 mm 0.00 in0.0 mm
01:45 AM 35.2°F1.8°C 27.8°F-2.3°C 74% 4.6 mph SSW7.4 kmh SSW 4.6 mph7.4 kmh 29.07 in984.4 mb - 0.00 in0.0 mm 0.00 in0.0 mm
01:50 AM 35.2°F1.8°C 27.8°F-2.3°C 74% 5.8 mph SW9.3 kmh SW 8.1 mph13.0 kmh 29.07 in984.4 mb - 0.00 in0.0 mm 0.00 in0.0 mm
01:55 AM 35.1°F1.7°C 27.6°F-2.4°C 74% 4.6 mph SW7.4 kmh SW 5.8 mph9.3 kmh 29.07 in984.4 mb - 0.00 in0.0 mm 0.00 in0.0 mm
02:00 AM 35.1°F1.7°C 27.6°F-2.4°C 74% 5.8 mph SSW9.3 kmh SSW 5.8 mph9.3 kmh 29.06 in984.1 mb - 0.00 in0.0 mm 0.00 in0.0 mm
02:10 AM 35.1°F1.7°C 27.9°F-2.3°C 75% 4.6 mph SW7.4 kmh SW 4.6 mph7.4 kmh 29.06 in984.1 mb - 0.00 in0.0 mm 0.00 in0.0 mm
02:15 AM 35.1°F1.7°C 27.9°F-2.3°C 75% 3.5 mph S5.6 kmh S 3.5 mph5.6 kmh 29.06 in984.1 mb - 0.00 in0.0 mm 0.00 in0.0 mm
02:20 AM 35.1°F1.7°C 27.9°F-2.3°C 75% 5.8 mph SW9.3 kmh SW 5.8 mph9.3 kmh 29.06 in984.1 mb - 0.00 in0.0 mm 0.00 in0.0 mm
02:25 AM 35.1°F1.7°C 27.9°F-2.3°C 75% 5.8 mph SW9.3 kmh SW 9.2 mph14.8 kmh 29.06 in984.1 mb - 0.00 in0.0 mm 0.00 in0.0 mm
02:30 AM 35.0°F1.7°C 27.9°F-2.3°C 75% 4.6 mph W7.4 kmh W 5.8 mph9.3 kmh 29.06 in984.1 mb - 0.00 in0.0 mm 0.00 in0.0 mm
02:35 AM 34.9°F1.6°C 27.8°F-2.3°C 75% 5.8 mph WSW9.3 kmh WSW 4.6 mph7.4 kmh 29.06 in984.1 mb - 0.00 in0.0 mm 0.00 in0.0 mm
02:40 AM 34.9°F1.6°C 28.1°F-2.2°C 76% 5.8 mph SSW9.3 kmh SSW 8.1 mph13.0 kmh 29.06 in984.1 mb - 0.00 in0.0 mm 0.00 in0.0 mm
02:45 AM 34.9°F1.6°C 28.7°F-1.8°C 78% 4.6 mph SW7.4 kmh SW 5.8 mph9.3 kmh 29.05 in983.7 mb - 0.00 in0.0 mm 0.00 in0.0 mm
02:50 AM 34.9°F1.6°C 28.7°F-1.8°C 78% 6.9 mph SW11.1 kmh SW 9.2 mph14.8 kmh 29.05 in983.7 mb - 0.00 in0.0 mm 0.00 in0.0 mm
02:55 AM 35.1°F1.7°C 28.9°F-1.7°C 78% 5.8 mph SW9.3 kmh SW 5.8 mph9.3 kmh 29.05 in983.7 mb - 0.00 in0.0 mm 0.00 in0.0 mm
03:00 AM 35.1°F1.7°C 28.9°F-1.7°C 78% 5.8 mph SW9.3 kmh SW 5.8 mph9.3 kmh 29.04 in983.4 mb - 0.00 in0.0 mm 0.00 in0.0 mm
03:10 AM 35.1°F1.7°C 28.9°F-1.7°C 78% 4.6 mph SSW7.4 kmh SSW 4.6 mph7.4 kmh 29.04 in983.4 mb - 0.00 in0.0 mm 0.00 in0.0 mm
03:15 AM 35.1°F1.7°C 28.3°F-2.1°C 76% 6.9 mph SW11.1 kmh SW 8.1 mph13.0 kmh 29.04 in983.4 mb - 0.00 in0.0 mm 0.00 in0.0 mm
03:20 AM 35.1°F1.7°C 28.3°F-2.1°C 76% 5.8 mph SW9.3 kmh SW 5.8 mph9.3 kmh 29.04 in983.4 mb - 0.00 in0.0 mm 0.00 in0.0 mm
03:25 AM 35.1°F1.7°C 28.3°F-2.1°C 76% 6.9 mph WSW11.1 kmh WSW 9.2 mph14.8 kmh 29.04 in983.4 mb - 0.00 in0.0 mm 0.00 in0.0 mm
03:30 AM 35.2°F1.8°C 28.4°F-2.0°C 76% 5.8 mph WSW9.3 kmh WSW 8.1 mph13.0 kmh 29.03 in983.1 mb - 0.00 in0.0 mm 0.00 in0.0 mm
03:35 AM 35.2°F1.8°C 28.4°F-2.0°C 76% 6.9 mph SSW11.1 kmh SSW 6.9 mph11.1 kmh 29.03 in983.1 mb - 0.00 in0.0 mm 0.00 in0.0 mm
03:40 AM 35.1°F1.7°C 28.3°F-2.1°C 76% 5.8 mph SSW9.3 kmh SSW 9.2 mph14.8 kmh 29.03 in983.1 mb - 0.00 in0.0 mm 0.00 in0.0 mm
03:45 AM 35.1°F1.7°C 28.3°F-2.1°C 76% 4.6 mph SW7.4 kmh SW 6.9 mph11.1 kmh 29.03 in983.1 mb - 0.00 in0.0 mm 0.00 in0.0 mm
03:50 AM 35.1°F1.7°C 28.3°F-2.1°C 76% 3.5 mph WSW5.6 kmh WSW 3.5 mph5.6 kmh 29.03 in983.1 mb - 0.00 in0.0 mm 0.00 in0.0 mm
03:55 AM 35.1°F1.7°C 28.3°F-2.1°C 76% 4.6 mph SW7.4 kmh SW 8.1 mph13.0 kmh 29.03 in983.1 mb - 0.00 in0.0 mm 0.00 in0.0 mm
04:00 AM 35.1°F1.7°C 28.3°F-2.1°C 76% 4.6 mph SW7.4 kmh SW 5.8 mph9.3 kmh 29.02 in982.7 mb - 0.00 in0.0 mm 0.00 in0.0 mm
04:10 AM 35.4°F1.9°C 28.6°F-1.9°C 76% 3.5 mph W5.6 kmh W 5.8 mph9.3 kmh 29.02 in982.7 mb - 0.00 in0.0 mm 0.00 in0.0 mm
04:15 AM 35.8°F2.1°C 29.0°F-1.7°C 76% 3.5 mph W5.6 kmh W 4.6 mph7.4 kmh 29.03 in983.1 mb - 0.00 in0.0 mm 0.00 in0.0 mm
04:20 AM 36.1°F2.3°C 29.3°F-1.5°C 76% 3.5 mph WSW5.6 kmh WSW 9.2 mph14.8 kmh 29.03 in983.1 mb - 0.00 in0.0 mm 0.00 in0.0 mm
04:25 AM 36.5°F2.5°C 29.7°F-1.3°C 76% 3.5 mph SW5.6 kmh SW 5.8 mph9.3 kmh 29.03 in983.1 mb - 0.00 in0.0 mm 0.00 in0.0 mm
04:30 AM 36.7°F2.6°C 29.8°F-1.2°C 76% 4.6 mph SW7.4 kmh SW 5.8 mph9.3 kmh 29.03 in983.1 mb - 0.00 in0.0 mm 0.00 in0.0 mm
04:35 AM 36.9°F2.7°C 30.0°F-1.1°C 76% 4.6 mph WSW7.4 kmh WSW 5.8 mph9.3 kmh 29.03 in983.1 mb - 0.00 in0.0 mm 0.00 in0.0 mm
04:40 AM 37.0°F2.8°C 30.2°F-1.0°C 76% 4.6 mph W7.4 kmh W 5.8 mph9.3 kmh 29.03 in983.1 mb - 0.00 in0.0 mm 0.00 in0.0 mm
04:45 AM 37.2°F2.9°C 31.0°F-0.6°C 78% 4.6 mph WNW7.4 kmh WNW 4.6 mph7.4 kmh 29.04 in983.4 mb - 0.01 in0.3 mm 0.01 in0.3 mm
04:50 AM 37.4°F3.0°C 31.2°F-0.4°C 78% 6.9 mph W11.1 kmh W 13.8 mph22.2 kmh 29.04 in983.4 mb - 0.01 in0.3 mm 0.01 in0.3 mm
04:55 AM 37.4°F3.0°C 31.5°F-0.3°C 79% 5.8 mph WNW9.3 kmh WNW 5.8 mph9.3 kmh 29.04 in983.4 mb - 0.01 in0.3 mm 0.01 in0.3 mm
05:00 AM 37.4°F3.0°C 31.5°F-0.3°C 79% 4.6 mph W7.4 kmh W 4.6 mph7.4 kmh 29.02 in982.7 mb - 0.01 in0.3 mm 0.01 in0.3 mm
05:10 AM 37.4°F3.0°C 31.8°F-0.1°C 80% 4.6 mph W7.4 kmh W 4.6 mph7.4 kmh 29.02 in982.7 mb - 0.01 in0.3 mm 0.01 in0.3 mm
05:15 AM 37.8°F3.2°C 32.1°F0.1°C 80% 4.6 mph N7.4 kmh N 5.8 mph9.3 kmh 29.03 in983.1 mb - 0.01 in0.3 mm 0.01 in0.3 mm
05:20 AM 38.1°F3.4°C 32.2°F0.1°C 79% 5.8 mph WSW9.3 kmh WSW 5.8 mph9.3 kmh 29.03 in983.1 mb - 0.01 in0.3 mm 0.01 in0.3 mm
05:25 AM 38.4°F3.6°C 32.1°F0.1°C 78% 4.6 mph W7.4 kmh W 8.1 mph13.0 kmh 29.03 in983.1 mb - 0.01 in0.3 mm 0.01 in0.3 mm
05:30 AM 38.3°F3.5°C 32.0°F0.0°C 78% 4.6 mph WSW7.4 kmh WSW 9.2 mph14.8 kmh 29.04 in983.4 mb - 0.01 in0.3 mm 0.01 in0.3 mm
05:35 AM 38.3°F3.5°C 32.0°F0.0°C 78% 4.6 mph W7.4 kmh W 3.5 mph5.6 kmh 29.04 in983.4 mb - 0.01 in0.3 mm 0.01 in0.3 mm
05:40 AM 38.3°F3.5°C 31.4°F-0.3°C 76% 3.5 mph WSW5.6 kmh WSW 3.5 mph5.6 kmh 29.04 in983.4 mb - 0.01 in0.3 mm 0.01 in0.3 mm
05:45 AM 38.1°F3.4°C 31.2°F-0.4°C 76% 3.5 mph WNW5.6 kmh WNW 5.8 mph9.3 kmh 29.04 in983.4 mb - 0.01 in0.3 mm 0.01 in0.3 mm
05:50 AM 37.9°F3.3°C 31.0°F-0.6°C 76% 3.5 mph WNW5.6 kmh WNW 5.8 mph9.3 kmh 29.04 in983.4 mb - 0.00 in0.0 mm 0.01 in0.3 mm
05:55 AM 37.9°F3.3°C 31.7°F-0.2°C 78% 3.5 mph WNW5.6 kmh WNW 3.5 mph5.6 kmh 29.04 in983.4 mb - 0.00 in0.0 mm 0.01 in0.3 mm
06:00 AM 37.8°F3.2°C 31.5°F-0.3°C 78% 4.6 mph WNW7.4 kmh WNW 8.1 mph13.0 kmh 29.04 in983.4 mb - 0.00 in0.0 mm 0.01 in0.3 mm
06:10 AM 37.8°F3.2°C 31.5°F-0.3°C 78% 4.6 mph WNW7.4 kmh WNW 3.5 mph5.6 kmh 29.04 in983.4 mb - 0.00 in0.0 mm 0.01 in0.3 mm
06:15 AM 37.6°F3.1°C 31.3°F-0.4°C 78% 5.8 mph WNW9.3 kmh WNW 8.1 mph13.0 kmh 29.05 in983.7 mb - 0.00 in0.0 mm 0.01 in0.3 mm
06:20 AM 37.4°F3.0°C 31.2°F-0.4°C 78% 3.5 mph W5.6 kmh W 3.5 mph5.6 kmh 29.05 in983.7 mb - 0.00 in0.0 mm 0.01 in0.3 mm
06:25 AM 37.4°F3.0°C 31.2°F-0.4°C 78% 3.5 mph W5.6 kmh W 5.8 mph9.3 kmh 29.05 in983.7 mb - 0.00 in0.0 mm 0.01 in0.3 mm
06:30 AM 37.4°F3.0°C 31.1°F-0.5°C 78% 5.8 mph WSW9.3 kmh WSW 9.2 mph14.8 kmh 29.05 in983.7 mb - 0.00 in0.0 mm 0.01 in0.3 mm
06:35 AM 37.2°F2.9°C 31.3°F-0.4°C 79% 5.8 mph NW9.3 kmh NW 8.1 mph13.0 kmh 29.05 in983.7 mb - 0.00 in0.0 mm 0.01 in0.3 mm
06:40 AM 37.2°F2.9°C 31.3°F-0.4°C 79% 4.6 mph WNW7.4 kmh WNW 4.6 mph7.4 kmh 29.05 in983.7 mb - 0.00 in0.0 mm 0.01 in0.3 mm
06:45 AM 37.2°F2.9°C 31.3°F-0.4°C 79% 5.8 mph WNW9.3 kmh WNW 6.9 mph11.1 kmh 29.05 in983.7 mb - 0.00 in0.0 mm 0.01 in0.3 mm
06:50 AM 37.2°F2.9°C 31.6°F-0.2°C 80% 4.6 mph WNW7.4 kmh WNW 5.8 mph9.3 kmh 29.05 in983.7 mb - 0.00 in0.0 mm 0.01 in0.3 mm
06:55 AM 37.4°F3.0°C 31.5°F-0.3°C 79% 6.9 mph W11.1 kmh W 5.8 mph9.3 kmh 29.05 in983.7 mb - 0.00 in0.0 mm 0.01 in0.3 mm
07:00 AM 37.4°F3.0°C 31.5°F-0.3°C 79% 5.8 mph W9.3 kmh W 9.2 mph14.8 kmh 29.05 in983.7 mb - 0.00 in0.0 mm 0.01 in0.3 mm
07:10 AM 37.4°F3.0°C 31.5°F-0.3°C 79% 6.9 mph W11.1 kmh W 6.9 mph11.1 kmh 29.05 in983.7 mb - 0.00 in0.0 mm 0.01 in0.3 mm
07:15 AM 37.2°F2.9°C 31.3°F-0.4°C 79% 3.5 mph NW5.6 kmh NW 4.6 mph7.4 kmh 29.06 in984.1 mb - 0.00 in0.0 mm 0.01 in0.3 mm
07:20 AM 37.2°F2.9°C 31.3°F-0.4°C 79% 6.9 mph WNW11.1 kmh WNW 6.9 mph11.1 kmh 29.06 in984.1 mb - 0.00 in0.0 mm 0.01 in0.3 mm
07:25 AM 37.2°F2.9°C 31.6°F-0.2°C 80% 5.8 mph W9.3 kmh W 8.1 mph13.0 kmh 29.06 in984.1 mb - 0.00 in0.0 mm 0.01 in0.3 mm
07:30 AM 37.2°F2.9°C 31.6°F-0.2°C 80% 5.8 mph WNW9.3 kmh WNW 6.9 mph11.1 kmh 29.08 in984.8 mb - 0.00 in0.0 mm 0.01 in0.3 mm
07:35 AM 37.2°F2.9°C 31.6°F-0.2°C 80% 4.6 mph NW7.4 kmh NW 5.8 mph9.3 kmh 29.08 in984.8 mb - 0.00 in0.0 mm 0.01 in0.3 mm
07:40 AM 37.4°F3.0°C 31.8°F-0.1°C 80% 6.9 mph W11.1 kmh W 8.1 mph13.0 kmh 29.08 in984.8 mb - 0.00 in0.0 mm 0.01 in0.3 mm
07:45 AM 37.4°F3.0°C 31.8°F-0.1°C 80% 8.1 mph WNW13.0 kmh WNW 8.1 mph13.0 kmh 29.08 in984.8 mb - 0.00 in0.0 mm 0.01 in0.3 mm
07:50 AM 37.4°F3.0°C 31.8°F-0.1°C 80% 5.8 mph WNW9.3 kmh WNW 6.9 mph11.1 kmh 29.08 in984.8 mb - 0.00 in0.0 mm 0.01 in0.3 mm
07:55 AM 37.6°F3.1°C 32.0°F0.0°C 80% 4.6 mph WNW7.4 kmh WNW 5.8 mph9.3 kmh 29.08 in984.8 mb - 0.00 in0.0 mm 0.01 in0.3 mm
08:00 AM 37.6°F3.1°C 31.7°F-0.2°C 79% 6.9 mph WNW11.1 kmh WNW 10.4 mph16.7 kmh 29.09 in985.1 mb - 0.00 in0.0 mm 0.01 in0.3 mm
08:10 AM 37.6°F3.1°C 31.7°F-0.2°C 79% 5.8 mph WNW9.3 kmh WNW 5.8 mph9.3 kmh 29.09 in985.1 mb - 0.00 in0.0 mm 0.01 in0.3 mm
08:15 AM 37.6°F3.1°C 31.6°F-0.2°C 79% 3.5 mph W5.6 kmh W 4.6 mph7.4 kmh 29.09 in985.1 mb - 0.00 in0.0 mm 0.01 in0.3 mm
08:20 AM 37.9°F3.3°C 31.6°F-0.2°C 78% 4.6 mph W7.4 kmh W 6.9 mph11.1 kmh 29.09 in985.1 mb - 0.00 in0.0 mm 0.01 in0.3 mm
08:25 AM 38.2°F3.4°C 31.9°F-0.1°C 78% 5.8 mph W9.3 kmh W 6.9 mph11.1 kmh 29.09 in985.1 mb - 0.00 in0.0 mm 0.01 in0.3 mm
08:30 AM 38.5°F3.6°C 31.6°F-0.2°C 76% 5.8 mph WNW9.3 kmh WNW 5.8 mph9.3 kmh 29.09 in985.1 mb - 0.00 in0.0 mm 0.01 in0.3 mm
08:35 AM 38.8°F3.8°C 31.9°F-0.1°C 76% 5.8 mph WNW9.3 kmh WNW 8.1 mph13.0 kmh 29.09 in985.1 mb - 0.00 in0.0 mm 0.01 in0.3 mm
08:40 AM 39.4°F4.1°C 32.4°F0.2°C 76% 5.8 mph WNW9.3 kmh WNW 8.1 mph13.0 kmh 29.09 in985.1 mb - 0.00 in0.0 mm 0.01 in0.3 mm
08:45 AM 39.7°F4.3°C 32.4°F0.2°C 75% 5.8 mph WNW9.3 kmh WNW 5.8 mph9.3 kmh 29.11 in985.8 mb - 0.00 in0.0 mm 0.01 in0.3 mm
08:50 AM 39.9°F4.4°C 32.0°F0.0°C 73% 5.8 mph NW9.3 kmh NW 5.8 mph9.3 kmh 29.11 in985.8 mb - 0.00 in0.0 mm 0.01 in0.3 mm
08:55 AM 40.2°F4.6°C 31.8°F-0.1°C 72% 6.9 mph WNW11.1 kmh WNW 9.2 mph14.8 kmh 29.11 in985.8 mb - 0.00 in0.0 mm 0.01 in0.3 mm
09:00 AM 40.5°F4.7°C 32.1°F0.1°C 72% 5.8 mph NNW9.3 kmh NNW 8.1 mph13.0 kmh 29.11 in985.8 mb - 0.00 in0.0 mm 0.01 in0.3 mm
09:10 AM 41.0°F5.0°C 31.6°F-0.2°C 69% 5.8 mph WNW9.3 kmh WNW 8.1 mph13.0 kmh 29.11 in985.8 mb - 0.00 in0.0 mm 0.01 in0.3 mm
09:15 AM 41.4°F5.2°C 31.9°F-0.1°C 69% 4.6 mph WNW7.4 kmh WNW 6.9 mph11.1 kmh 29.12 in986.1 mb - 0.00 in0.0 mm 0.01 in0.3 mm
09:20 AM 41.4°F5.2°C 31.9°F-0.1°C 69% 6.9 mph W11.1 kmh W 10.4 mph16.7 kmh 29.12 in986.1 mb - 0.00 in0.0 mm 0.01 in0.3 mm
09:25 AM 41.4°F5.2°C 31.6°F-0.2°C 68% 4.6 mph WNW7.4 kmh WNW 4.6 mph7.4 kmh 29.12 in986.1 mb - 0.00 in0.0 mm 0.01 in0.3 mm
09:30 AM 42.1°F5.6°C 32.3°F0.2°C 68% 9.2 mph W14.8 kmh W 6.9 mph11.1 kmh 29.11 in985.8 mb - 0.00 in0.0 mm 0.01 in0.3 mm
09:35 AM 42.4°F5.8°C 32.3°F0.2°C 67% 6.9 mph W11.1 kmh W 9.2 mph14.8 kmh 29.11 in985.8 mb - 0.00 in0.0 mm 0.01 in0.3 mm
09:40 AM 43.0°F6.1°C 32.4°F0.2°C 66% 6.9 mph WNW11.1 kmh WNW 8.1 mph13.0 kmh 29.11 in985.8 mb - 0.00 in0.0 mm 0.01 in0.3 mm
09:45 AM 43.3°F6.3°C 32.7°F0.4°C 66% 5.8 mph WNW9.3 kmh WNW 10.4 mph16.7 kmh 29.12 in986.1 mb - 0.00 in0.0 mm 0.01 in0.3 mm
09:50 AM 43.2°F6.2°C 31.8°F-0.1°C 64% 5.8 mph W9.3 kmh W 5.8 mph9.3 kmh 29.12 in986.1 mb - 0.00 in0.0 mm 0.01 in0.3 mm
09:55 AM 43.3°F6.3°C 32.4°F0.2°C 65% 4.6 mph WNW7.4 kmh WNW 8.1 mph13.0 kmh 29.12 in986.1 mb - 0.00 in0.0 mm 0.01 in0.3 mm
10:00 AM 43.3°F6.3°C 32.0°F0.0°C 64% 4.6 mph WNW7.4 kmh WNW 4.6 mph7.4 kmh 29.12 in986.1 mb - 0.00 in0.0 mm 0.01 in0.3 mm
10:10 AM 44.1°F6.7°C 32.3°F0.2°C 63% 9.2 mph WNW14.8 kmh WNW 15.0 mph24.1 kmh 29.12 in986.1 mb - 0.00 in0.0 mm 0.01 in0.3 mm
10:15 AM 44.1°F6.7°C 32.3°F0.2°C 63% 6.9 mph NW11.1 kmh NW 5.8 mph9.3 kmh 29.13 in986.5 mb - 0.00 in0.0 mm 0.01 in0.3 mm
10:20 AM 44.3°F6.8°C 32.5°F0.3°C 63% 6.9 mph NW11.1 kmh NW 5.8 mph9.3 kmh 29.13 in986.5 mb - 0.00 in0.0 mm 0.01 in0.3 mm
10:25 AM 44.4°F6.9°C 31.8°F-0.1°C 61% 8.1 mph NW13.0 kmh NW 9.2 mph14.8 kmh 29.13 in986.5 mb - 0.00 in0.0 mm 0.01 in0.3 mm
10:30 AM 44.6°F7.0°C 32.0°F0.0°C 61% 6.9 mph W11.1 kmh W 11.5 mph18.5 kmh 29.13 in986.5 mb - 0.00 in0.0 mm 0.01 in0.3 mm
10:35 AM 45.0°F7.2°C 32.3°F0.2°C 61% 6.9 mph WNW11.1 kmh WNW 6.9 mph11.1 kmh 29.13 in986.5 mb - 0.00 in0.0 mm 0.01 in0.3 mm
10:40 AM 45.3°F7.4°C 31.8°F-0.1°C 59% 8.1 mph NW13.0 kmh NW 8.1 mph13.0 kmh 29.13 in986.5 mb - 0.00 in0.0 mm 0.01 in0.3 mm
10:45 AM 45.5°F7.5°C 31.6°F-0.2°C 58% 6.9 mph WNW11.1 kmh WNW 9.2 mph14.8 kmh 29.13 in986.5 mb - 0.00 in0.0 mm 0.01 in0.3 mm
10:50 AM 45.7°F7.6°C 31.7°F-0.2°C 58% 9.2 mph NW14.8 kmh NW 10.4 mph16.7 kmh 29.13 in986.5 mb - 0.00 in0.0 mm 0.01 in0.3 mm
10:55 AM 46.1°F7.8°C 32.1°F0.1°C 58% 6.9 mph NNW11.1 kmh NNW 6.9 mph11.1 kmh 29.13 in986.5 mb - 0.00 in0.0 mm 0.01 in0.3 mm
11:00 AM 46.4°F8.0°C 31.5°F-0.3°C 56% 6.9 mph NW11.1 kmh NW 8.1 mph13.0 kmh 29.13 in986.5 mb - 0.00 in0.0 mm 0.01 in0.3 mm
11:10 AM 47.1°F8.4°C 31.8°F-0.1°C 55% 10.4 mph WNW16.7 kmh WNW 8.1 mph13.0 kmh 29.13 in986.5 mb - 0.00 in0.0 mm 0.01 in0.3 mm
11:15 AM 46.6°F8.1°C 31.2°F-0.4°C 55% 9.2 mph NW14.8 kmh NW 12.7 mph20.4 kmh 29.13 in986.5 mb - 0.00 in0.0 mm 0.01 in0.3 mm
11:20 AM 45.6°F7.6°C 30.8°F-0.7°C 56% 9.2 mph W14.8 kmh W 10.4 mph16.7 kmh 29.13 in986.5 mb - 0.00 in0.0 mm 0.01 in0.3 mm
11:25 AM 44.8°F7.1°C 30.5°F-0.8°C 57% 6.9 mph NW11.1 kmh NW 8.1 mph13.0 kmh 29.13 in986.5 mb - 0.00 in0.0 mm 0.01 in0.3 mm
11:30 AM 44.6°F7.0°C 30.3°F-0.9°C 57% 17.3 mph NNW27.8 kmh NNW 28.8 mph46.3 kmh 29.13 in986.5 mb - 0.02 in0.5 mm 0.03 in0.8 mm
11:35 AM 44.2°F6.8°C 30.0°F-1.1°C 57% 11.5 mph WNW18.5 kmh WNW 13.8 mph22.2 kmh 29.13 in986.5 mb - 0.02 in0.5 mm 0.03 in0.8 mm
11:40 AM 43.9°F6.6°C 30.1°F-1.1°C 58% 9.2 mph WNW14.8 kmh WNW 11.5 mph18.5 kmh 29.13 in986.5 mb - 0.02 in0.5 mm 0.03 in0.8 mm
11:45 AM 43.5°F6.4°C 30.1°F-1.1°C 59% 8.1 mph WNW13.0 kmh WNW 8.1 mph13.0 kmh 29.14 in986.8 mb - 0.02 in0.5 mm 0.03 in0.8 mm
11:50 AM 43.5°F6.4°C 30.9°F-0.6°C 61% 8.1 mph NNW13.0 kmh NNW 12.7 mph20.4 kmh 29.14 in986.8 mb - 0.02 in0.5 mm 0.03 in0.8 mm
11:55 AM 44.1°F6.7°C 31.5°F-0.3°C 61% 11.5 mph W18.5 kmh W 18.4 mph29.6 kmh 29.14 in986.8 mb - 0.02 in0.5 mm 0.03 in0.8 mm
12:00 PM 44.4°F6.9°C 31.0°F-0.6°C 59% 8.1 mph WNW13.0 kmh WNW 9.2 mph14.8 kmh 29.14 in986.8 mb - 0.02 in0.5 mm 0.03 in0.8 mm
12:10 PM 44.8°F7.1°C 30.5°F-0.8°C 57% 11.5 mph NW18.5 kmh NW 11.5 mph18.5 kmh 29.14 in986.8 mb - 0.02 in0.5 mm 0.03 in0.8 mm
12:15 PM 44.6°F7.0°C 29.4°F-1.4°C 55% 15.0 mph NNW24.1 kmh NNW 19.6 mph31.5 kmh 29.14 in986.8 mb - 0.02 in0.5 mm 0.03 in0.8 mm
12:20 PM 44.6°F7.0°C 29.4°F-1.4°C 55% 11.5 mph NNW18.5 kmh NNW 12.7 mph20.4 kmh 29.14 in986.8 mb - 0.02 in0.5 mm 0.03 in0.8 mm
12:25 PM 44.8°F7.1°C 29.6°F-1.3°C 55% 11.5 mph NNW18.5 kmh NNW 12.7 mph20.4 kmh 29.14 in986.8 mb - 0.02 in0.5 mm 0.03 in0.8 mm
12:30 PM 45.0°F7.2°C 29.8°F-1.2°C 55% 8.1 mph NW13.0 kmh NW 10.4 mph16.7 kmh 29.15 in987.1 mb - 0.02 in0.5 mm 0.03 in0.8 mm
12:35 PM 44.6°F7.0°C 29.4°F-1.4°C 55% 9.2 mph NW14.8 kmh NW 10.4 mph16.7 kmh 29.15 in987.1 mb - 0.00 in0.0 mm 0.03 in0.8 mm
12:40 PM 44.6°F7.0°C 29.4°F-1.4°C 55% 11.5 mph NNW18.5 kmh NNW 13.8 mph22.2 kmh 29.15 in987.1 mb - 0.00 in0.0 mm 0.03 in0.8 mm
12:45 PM 44.6°F7.0°C 29.4°F-1.4°C 55% 10.4 mph NW16.7 kmh NW 11.5 mph18.5 kmh 29.15 in987.1 mb - 0.00 in0.0 mm 0.03 in0.8 mm
12:50 PM 44.5°F6.9°C 29.4°F-1.4°C 55% 8.1 mph WNW13.0 kmh WNW 10.4 mph16.7 kmh 29.15 in987.1 mb - 0.00 in0.0 mm 0.03 in0.8 mm
12:55 PM 44.1°F6.7°C 28.9°F-1.7°C 55% 12.7 mph WNW20.4 kmh WNW 15.0 mph24.1 kmh 29.15 in987.1 mb - 0.00 in0.0 mm 0.03 in0.8 mm
01:00 PM 44.1°F6.7°C 28.9°F-1.7°C 55% 10.4 mph NNW16.7 kmh NNW 15.0 mph24.1 kmh 29.16 in987.5 mb - 0.00 in0.0 mm 0.03 in0.8 mm
01:10 PM 44.4°F6.9°C 28.8°F-1.8°C 54% 12.7 mph NNW20.4 kmh NNW 20.7 mph33.3 kmh 29.16 in987.5 mb - 0.00 in0.0 mm 0.03 in0.8 mm
01:15 PM 44.1°F6.7°C 28.1°F-2.2°C 53% 13.8 mph WNW22.2 kmh WNW 20.7 mph33.3 kmh 29.14 in986.8 mb - 0.00 in0.0 mm 0.03 in0.8 mm
01:20 PM 44.0°F6.7°C 28.0°F-2.2°C 53% 16.1 mph N25.9 kmh N 24.2 mph38.9 kmh 29.14 in986.8 mb - 0.00 in0.0 mm 0.03 in0.8 mm
01:25 PM 44.1°F6.7°C 28.5°F-1.9°C 54% 13.8 mph WNW22.2 kmh WNW 17.3 mph27.8 kmh 29.14 in986.8 mb - 0.00 in0.0 mm 0.03 in0.8 mm
01:30 PM 44.1°F6.7°C 28.5°F-1.9°C 54% 11.5 mph N18.5 kmh N 15.0 mph24.1 kmh 29.16 in987.5 mb - 0.00 in0.0 mm 0.03 in0.8 mm
01:35 PM 43.7°F6.5°C 28.1°F-2.2°C 54% 9.2 mph W14.8 kmh W 11.5 mph18.5 kmh 29.16 in987.5 mb - 0.00 in0.0 mm 0.03 in0.8 mm
01:40 PM 43.5°F6.4°C 28.0°F-2.2°C 54% 12.7 mph NNW20.4 kmh NNW 12.7 mph20.4 kmh 29.16 in987.5 mb - 0.00 in0.0 mm 0.03 in0.8 mm
01:45 PM 43.4°F6.3°C 27.9°F-2.3°C 54% 11.5 mph NW18.5 kmh NW 11.5 mph18.5 kmh 29.16 in987.5 mb - 0.00 in0.0 mm 0.03 in0.8 mm
01:50 PM 43.1°F6.2°C 28.0°F-2.2°C 55% 11.5 mph NW18.5 kmh NW 12.7 mph20.4 kmh 29.16 in987.5 mb - 0.00 in0.0 mm 0.03 in0.8 mm
01:55 PM 42.4°F5.8°C 27.0°F-2.8°C 54% 11.5 mph WNW18.5 kmh WNW 13.8 mph22.2 kmh 29.16 in987.5 mb - 0.00 in0.0 mm 0.03 in0.8 mm
02:00 PM 42.1°F5.6°C 27.1°F-2.7°C 55% 13.8 mph WNW22.2 kmh WNW 12.7 mph20.4 kmh 29.17 in987.8 mb - 0.00 in0.0 mm 0.03 in0.8 mm
02:10 PM 43.3°F6.3°C 28.2°F-2.1°C 55% 10.4 mph NW16.7 kmh NW 15.0 mph24.1 kmh 29.17 in987.8 mb - 0.00 in0.0 mm 0.03 in0.8 mm
02:15 PM 43.7°F6.5°C 28.6°F-1.9°C 55% 9.2 mph NW14.8 kmh NW 12.7 mph20.4 kmh 29.18 in988.1 mb - 0.00 in0.0 mm 0.03 in0.8 mm
02:20 PM 43.9°F6.6°C 28.3°F-2.1°C 54% 9.2 mph NNW14.8 kmh NNW 10.4 mph16.7 kmh 29.18 in988.1 mb - 0.00 in0.0 mm 0.03 in0.8 mm
02:25 PM 43.9°F6.6°C 28.3°F-2.1°C 54% 10.4 mph WNW16.7 kmh WNW 11.5 mph18.5 kmh 29.18 in988.1 mb - 0.00 in0.0 mm 0.03 in0.8 mm
02:30 PM 44.4°F6.9°C 28.8°F-1.8°C 54% 9.2 mph W14.8 kmh W 12.7 mph20.4 kmh 29.19 in988.5 mb - 0.00 in0.0 mm 0.03 in0.8 mm
02:35 PM 43.5°F6.4°C 28.0°F-2.2°C 54% 9.2 mph NW14.8 kmh NW 11.5 mph18.5 kmh 29.19 in988.5 mb - 0.00 in0.0 mm 0.03 in0.8 mm
02:40 PM 43.2°F6.2°C 27.7°F-2.4°C 54% 11.5 mph NNW18.5 kmh NNW 17.3 mph27.8 kmh 29.19 in988.5 mb - 0.00 in0.0 mm 0.03 in0.8 mm
02:45 PM 43.3°F6.3°C 27.8°F-2.3°C 54% 13.8 mph NNW22.2 kmh NNW 15.0 mph24.1 kmh 29.20 in988.8 mb - 0.00 in0.0 mm 0.03 in0.8 mm
02:50 PM 42.9°F6.1°C 26.0°F-3.3°C 51% 20.7 mph NNW33.3 kmh NNW 25.3 mph40.7 kmh 29.20 in988.8 mb - 0.00 in0.0 mm 0.03 in0.8 mm
02:55 PM 42.3°F5.7°C 25.4°F-3.7°C 51% 12.7 mph NNW20.4 kmh NNW 13.8 mph22.2 kmh 29.20 in988.8 mb - 0.00 in0.0 mm 0.03 in0.8 mm
03:00 PM 41.7°F5.4°C 25.8°F-3.4°C 53% 12.7 mph NNW20.4 kmh NNW 12.7 mph20.4 kmh 29.20 in988.8 mb - 0.00 in0.0 mm 0.03 in0.8 mm
03:10 PM 41.5°F5.3°C 25.7°F-3.5°C 53% 9.2 mph WNW14.8 kmh WNW 12.7 mph20.4 kmh 29.20 in988.8 mb - 0.00 in0.0 mm 0.03 in0.8 mm
03:15 PM 41.1°F5.1°C 24.8°F-4.0°C 52% 12.7 mph NW20.4 kmh NW 15.0 mph24.1 kmh 29.20 in988.8 mb - 0.00 in0.0 mm 0.03 in0.8 mm
03:20 PM 41.0°F5.0°C 24.7°F-4.1°C 52% 9.2 mph NNW14.8 kmh NNW 16.1 mph25.9 kmh 29.20 in988.8 mb - 0.00 in0.0 mm 0.03 in0.8 mm
03:25 PM 41.2°F5.1°C 24.4°F-4.2°C 51% 10.4 mph NW16.7 kmh NW 12.7 mph20.4 kmh 29.20 in988.8 mb - 0.00 in0.0 mm 0.03 in0.8 mm
03:30 PM 41.0°F5.0°C 24.2°F-4.3°C 51% 12.7 mph NNW20.4 kmh NNW 13.8 mph22.2 kmh 29.21 in989.2 mb - 0.00 in0.0 mm 0.03 in0.8 mm
03:35 PM 40.8°F4.9°C 24.5°F-4.2°C 52% 9.2 mph NW14.8 kmh NW 11.5 mph18.5 kmh 29.21 in989.2 mb - 0.00 in0.0 mm 0.03 in0.8 mm
03:40 PM 40.7°F4.8°C 24.4°F-4.2°C 52% 10.4 mph NW16.7 kmh NW 13.8 mph22.2 kmh 29.21 in989.2 mb - 0.00 in0.0 mm 0.03 in0.8 mm
03:45 PM 40.6°F4.8°C 24.4°F-4.2°C 52% 6.9 mph W11.1 kmh W 10.4 mph16.7 kmh 29.21 in989.2 mb - 0.00 in0.0 mm 0.03 in0.8 mm
03:50 PM 40.3°F4.6°C 24.5°F-4.2°C 53% 8.1 mph NNW13.0 kmh NNW 8.1 mph13.0 kmh 29.21 in989.2 mb - 0.00 in0.0 mm 0.03 in0.8 mm
03:55 PM 40.1°F4.5°C 24.3°F-4.3°C 53% 9.2 mph NW14.8 kmh NW 11.5 mph18.5 kmh 29.21 in989.2 mb - 0.00 in0.0 mm 0.03 in0.8 mm
04:00 PM 39.9°F4.4°C 24.2°F-4.3°C 53% 5.8 mph NW9.3 kmh NW 6.9 mph11.1 kmh 29.22 in989.5 mb - 0.00 in0.0 mm 0.03 in0.8 mm
04:10 PM 39.6°F4.2°C 23.9°F-4.5°C 53% 5.8 mph W9.3 kmh W 9.2 mph14.8 kmh 29.22 in989.5 mb - 0.00 in0.0 mm 0.03 in0.8 mm
04:15 PM 39.5°F4.2°C 23.8°F-4.6°C 53% 5.8 mph WNW9.3 kmh WNW 6.9 mph11.1 kmh 29.23 in989.8 mb - 0.00 in0.0 mm 0.03 in0.8 mm
04:20 PM 39.2°F4.0°C 23.5°F-4.7°C 53% 5.8 mph NNW9.3 kmh NNW 4.6 mph7.4 kmh 29.23 in989.8 mb - 0.00 in0.0 mm 0.03 in0.8 mm
04:25 PM 39.0°F3.9°C 23.3°F-4.8°C 53% 6.9 mph NNW11.1 kmh NNW 8.1 mph13.0 kmh 29.23 in989.8 mb - 0.00 in0.0 mm 0.03 in0.8 mm
04:30 PM 38.8°F3.8°C 22.7°F-5.2°C 52% 8.1 mph WNW13.0 kmh WNW 9.2 mph14.8 kmh 29.23 in989.8 mb - 0.00 in0.0 mm 0.03 in0.8 mm
04:35 PM 38.7°F3.7°C 22.5°F-5.3°C 52% 5.8 mph NW9.3 kmh NW 6.9 mph11.1 kmh 29.23 in989.8 mb - 0.00 in0.0 mm 0.03 in0.8 mm
04:40 PM 38.8°F3.8°C 22.6°F-5.2°C 52% 8.1 mph WNW13.0 kmh WNW 12.7 mph20.4 kmh 29.23 in989.8 mb - 0.00 in0.0 mm 0.03 in0.8 mm
04:45 PM 38.4°F3.6°C 22.8°F-5.1°C 53% 4.6 mph W7.4 kmh W 5.8 mph9.3 kmh 29.23 in989.8 mb - 0.00 in0.0 mm 0.03 in0.8 mm
04:50 PM 38.3°F3.5°C 22.6°F-5.2°C 53% 5.8 mph NNW9.3 kmh NNW 5.8 mph9.3 kmh 29.23 in989.8 mb - 0.00 in0.0 mm 0.03 in0.8 mm
04:55 PM 37.9°F3.3°C 22.3°F-5.4°C 53% 5.8 mph WNW9.3 kmh WNW 4.6 mph7.4 kmh 29.23 in989.8 mb - 0.00 in0.0 mm 0.03 in0.8 mm
05:00 PM 37.8°F3.2°C 22.1°F-5.5°C 53% 4.6 mph NW7.4 kmh NW 6.9 mph11.1 kmh 29.23 in989.8 mb - 0.00 in0.0 mm 0.03 in0.8 mm
05:10 PM 37.8°F3.2°C 22.1°F-5.5°C 53% 5.8 mph WNW9.3 kmh WNW 8.1 mph13.0 kmh 29.23 in989.8 mb - 0.00 in0.0 mm 0.03 in0.8 mm
05:15 PM 37.9°F3.3°C 22.3°F-5.4°C 53% 8.1 mph WNW13.0 kmh WNW 6.9 mph11.1 kmh 29.25 in990.5 mb - 0.00 in0.0 mm 0.03 in0.8 mm
05:20 PM 37.9°F3.3°C 22.3°F-5.4°C 53% 10.4 mph WNW16.7 kmh WNW 11.5 mph18.5 kmh 29.25 in990.5 mb - 0.00 in0.0 mm 0.03 in0.8 mm
05:25 PM 37.9°F3.3°C 22.3°F-5.4°C 53% 9.2 mph WNW14.8 kmh WNW 11.5 mph18.5 kmh 29.25 in990.5 mb - 0.00 in0.0 mm 0.03 in0.8 mm
05:30 PM 37.9°F3.3°C 22.3°F-5.4°C 53% 6.9 mph NNW11.1 kmh NNW 5.8 mph9.3 kmh 29.25 in990.5 mb - 0.00 in0.0 mm 0.03 in0.8 mm
05:35 PM 38.6°F3.7°C 22.0°F-5.6°C 51% 10.4 mph NW16.7 kmh NW 13.8 mph22.2 kmh 29.25 in990.5 mb - 0.00 in0.0 mm 0.03 in0.8 mm
05:40 PM 39.0°F3.9°C 21.9°F-5.6°C 50% 13.8 mph NNW22.2 kmh NNW 15.0 mph24.1 kmh 29.25 in990.5 mb - 0.00 in0.0 mm 0.03 in0.8 mm
05:45 PM 38.8°F3.8°C 21.3°F-5.9°C 49% 10.4 mph N16.7 kmh N 12.7 mph20.4 kmh 29.26 in990.9 mb - 0.00 in0.0 mm 0.03 in0.8 mm
05:50 PM 38.7°F3.7°C 21.1°F-6.1°C 49% 11.5 mph NNW18.5 kmh NNW 15.0 mph24.1 kmh 29.26 in990.9 mb - 0.00 in0.0 mm 0.03 in0.8 mm
05:55 PM 38.5°F3.6°C 21.0°F-6.1°C 49% 12.7 mph NW20.4 kmh NW 18.4 mph29.6 kmh 29.26 in990.9 mb - 0.00 in0.0 mm 0.03 in0.8 mm
06:00 PM 38.7°F3.7°C 21.1°F-6.1°C 49% 13.8 mph NW22.2 kmh NW 15.0 mph24.1 kmh 29.28 in991.5 mb - 0.00 in0.0 mm 0.03 in0.8 mm
06:10 PM 38.3°F3.5°C 20.8°F-6.2°C 49% 6.9 mph NW11.1 kmh NW 11.5 mph18.5 kmh 29.28 in991.5 mb - 0.00 in0.0 mm 0.03 in0.8 mm
06:15 PM 38.2°F3.4°C 20.7°F-6.3°C 49% 11.5 mph NW18.5 kmh NW 13.8 mph22.2 kmh 29.27 in991.2 mb - 0.00 in0.0 mm 0.03 in0.8 mm
06:20 PM 37.9°F3.3°C 20.9°F-6.2°C 50% 8.1 mph NNW13.0 kmh NNW 10.4 mph16.7 kmh 29.27 in991.2 mb - 0.00 in0.0 mm 0.03 in0.8 mm
06:25 PM 37.8°F3.2°C 20.8°F-6.2°C 50% 9.2 mph NNW14.8 kmh NNW 9.2 mph14.8 kmh 29.27 in991.2 mb - 0.00 in0.0 mm 0.03 in0.8 mm
06:30 PM 37.6°F3.1°C 20.6°F-6.3°C 50% 8.1 mph NNE13.0 kmh NNE 6.9 mph11.1 kmh 29.28 in991.5 mb - 0.00 in0.0 mm 0.03 in0.8 mm
06:35 PM 37.5°F3.1°C 20.5°F-6.4°C 50% 6.9 mph NW11.1 kmh NW 9.2 mph14.8 kmh 29.28 in991.5 mb - 0.00 in0.0 mm 0.03 in0.8 mm
06:40 PM 37.6°F3.1°C 20.1°F-6.6°C 49% 8.1 mph NNW13.0 kmh NNW 9.2 mph14.8 kmh 29.28 in991.5 mb - 0.00 in0.0 mm 0.03 in0.8 mm
06:45 PM 37.4°F3.0°C 20.5°F-6.4°C 50% 8.1 mph NW13.0 kmh NW 9.2 mph14.8 kmh 29.29 in991.9 mb - 0.00 in0.0 mm 0.03 in0.8 mm
06:50 PM 37.4°F3.0°C 20.0°F-6.7°C 49% 6.9 mph NNW11.1 kmh NNW 9.2 mph14.8 kmh 29.29 in991.9 mb - 0.00 in0.0 mm 0.03 in0.8 mm
06:55 PM 37.4°F3.0°C 20.0°F-6.7°C 49% 9.2 mph NNW14.8 kmh NNW 10.4 mph16.7 kmh 29.29 in991.9 mb - 0.00 in0.0 mm 0.03 in0.8 mm
07:00 PM 37.4°F3.0°C 20.0°F-6.7°C 49% 8.1 mph WNW13.0 kmh WNW 9.2 mph14.8 kmh 29.30 in992.2 mb - 0.00 in0.0 mm 0.03 in0.8 mm
07:10 PM 37.3°F2.9°C 19.4°F-7.0°C 48% 9.2 mph NW14.8 kmh NW 11.5 mph18.5 kmh 29.30 in992.2 mb - 0.00 in0.0 mm 0.03 in0.8 mm
07:15 PM 37.4°F3.0°C 19.5°F-6.9°C 48% 10.4 mph NW16.7 kmh NW 11.5 mph18.5 kmh 29.30 in992.2 mb - 0.00 in0.0 mm 0.03 in0.8 mm
07:20 PM 37.2°F2.9°C 19.3°F-7.1°C 48% 10.4 mph NW16.7 kmh NW 12.7 mph20.4 kmh 29.30 in992.2 mb - 0.00 in0.0 mm 0.03 in0.8 mm
07:25 PM 37.2°F2.9°C 19.3°F-7.1°C 48% 8.1 mph NW13.0 kmh NW 11.5 mph18.5 kmh 29.30 in992.2 mb - 0.00 in0.0 mm 0.03 in0.8 mm
07:30 PM 37.2°F2.9°C 19.3°F-7.1°C 48% 11.5 mph NNW18.5 kmh NNW 12.7 mph20.4 kmh 29.31 in992.6 mb - 0.00 in0.0 mm 0.03 in0.8 mm
07:35 PM 37.0°F2.8°C 19.1°F-7.2°C 48% 6.9 mph WNW11.1 kmh WNW 10.4 mph16.7 kmh 29.31 in992.6 mb - 0.00 in0.0 mm 0.03 in0.8 mm
07:40 PM 37.1°F2.8°C 19.2°F-7.1°C 48% 8.1 mph NW13.0 kmh NW 10.4 mph16.7 kmh 29.31 in992.6 mb - 0.00 in0.0 mm 0.03 in0.8 mm
07:45 PM 37.0°F2.8°C 19.1°F-7.2°C 48% 9.2 mph NW14.8 kmh NW 13.8 mph22.2 kmh 29.31 in992.6 mb - 0.00 in0.0 mm 0.03 in0.8 mm
07:50 PM 37.0°F2.8°C 19.1°F-7.2°C 48% 9.2 mph NNW14.8 kmh NNW 11.5 mph18.5 kmh 29.31 in992.6 mb - 0.00 in0.0 mm 0.03 in0.8 mm
07:55 PM 37.0°F2.8°C 19.1°F-7.2°C 48% 9.2 mph NW14.8 kmh NW 13.8 mph22.2 kmh 29.31 in992.6 mb - 0.00 in0.0 mm 0.03 in0.8 mm
08:00 PM 36.9°F2.7°C 19.0°F-7.2°C 48% 9.2 mph NNW14.8 kmh NNW 17.3 mph27.8 kmh 29.32 in992.9 mb - 0.00 in0.0 mm 0.03 in0.8 mm
08:10 PM 36.9°F2.7°C 19.0°F-7.2°C 48% 8.1 mph NW13.0 kmh NW 8.1 mph13.0 kmh 29.32 in992.9 mb - 0.00 in0.0 mm 0.03 in0.8 mm
08:15 PM 36.9°F2.7°C 19.5°F-6.9°C 49% 8.1 mph NW13.0 kmh NW 9.2 mph14.8 kmh 29.34 in993.6 mb - 0.00 in0.0 mm 0.03 in0.8 mm
08:20 PM 36.7°F2.6°C 19.3°F-7.1°C 49% 6.9 mph NW11.1 kmh NW 8.1 mph13.0 kmh 29.34 in993.6 mb - 0.00 in0.0 mm 0.03 in0.8 mm
08:25 PM 36.9°F2.7°C 19.9°F-6.7°C 50% 5.8 mph NW9.3 kmh NW 8.1 mph13.0 kmh 29.34 in993.6 mb - 0.00 in0.0 mm 0.03 in0.8 mm
08:30 PM 36.9°F2.7°C 19.9°F-6.7°C 50% 6.9 mph NNW11.1 kmh NNW 8.1 mph13.0 kmh 29.34 in993.6 mb - 0.00 in0.0 mm 0.03 in0.8 mm
08:35 PM 36.8°F2.7°C 19.9°F-6.7°C 50% 6.9 mph WNW11.1 kmh WNW 6.9 mph11.1 kmh 29.34 in993.6 mb - 0.00 in0.0 mm 0.03 in0.8 mm
08:40 PM 36.9°F2.7°C 19.9°F-6.7°C 50% 9.2 mph NW14.8 kmh NW 10.4 mph16.7 kmh 29.34 in993.6 mb - 0.00 in0.0 mm 0.03 in0.8 mm
08:45 PM 37.0°F2.8°C 20.1°F-6.6°C 50% 6.9 mph WNW11.1 kmh WNW 12.7 mph20.4 kmh 29.35 in993.9 mb - 0.00 in0.0 mm 0.03 in0.8 mm
08:50 PM 36.9°F2.7°C 20.4°F-6.4°C 51% 6.9 mph NW11.1 kmh NW 8.1 mph13.0 kmh 29.35 in993.9 mb - 0.00 in0.0 mm 0.03 in0.8 mm
08:55 PM 36.9°F2.7°C 20.4°F-6.4°C 51% 4.6 mph NNW7.4 kmh NNW 8.1 mph13.0 kmh 29.35 in993.9 mb - 0.00 in0.0 mm 0.03 in0.8 mm
09:00 PM 36.9°F2.7°C 20.4°F-6.4°C 51% 8.1 mph NW13.0 kmh NW 8.1 mph13.0 kmh 29.36 in994.2 mb - 0.00 in0.0 mm 0.03 in0.8 mm
09:10 PM 36.3°F2.4°C 20.4°F-6.4°C 52% 6.9 mph NNW11.1 kmh NNW 8.1 mph13.0 kmh 29.36 in994.2 mb - 0.00 in0.0 mm 0.03 in0.8 mm
09:15 PM 36.1°F2.3°C 20.2°F-6.6°C 52% 4.6 mph WNW7.4 kmh WNW 3.5 mph5.6 kmh 29.37 in994.6 mb - 0.00 in0.0 mm 0.03 in0.8 mm
09:20 PM 36.0°F2.2°C 20.5°F-6.4°C 53% 5.8 mph WNW9.3 kmh WNW 9.2 mph14.8 kmh 29.37 in994.6 mb - 0.00 in0.0 mm 0.03 in0.8 mm
09:25 PM 35.8°F2.1°C 20.3°F-6.5°C 53% 4.6 mph WNW7.4 kmh WNW 6.9 mph11.1 kmh 29.37 in994.6 mb - 0.00 in0.0 mm 0.03 in0.8 mm
09:30 PM 35.3°F1.8°C 19.8°F-6.8°C 53% 5.8 mph NW9.3 kmh NW 9.2 mph14.8 kmh 29.37 in994.6 mb - 0.00 in0.0 mm 0.03 in0.8 mm
09:35 PM 35.2°F1.8°C 20.2°F-6.6°C 54% 6.9 mph WNW11.1 kmh WNW 6.9 mph11.1 kmh 29.37 in994.6 mb - 0.00 in0.0 mm 0.03 in0.8 mm
09:40 PM 35.2°F1.8°C 20.2°F-6.6°C 54% 8.1 mph W13.0 kmh W 11.5 mph18.5 kmh 29.37 in994.6 mb - 0.00 in0.0 mm 0.03 in0.8 mm
09:45 PM 35.1°F1.7°C 20.1°F-6.6°C 54% 5.8 mph NW9.3 kmh NW 8.1 mph13.0 kmh 29.38 in994.9 mb - 0.00 in0.0 mm 0.03 in0.8 mm
09:50 PM 35.2°F1.8°C 20.7°F-6.3°C 55% 6.9 mph WNW11.1 kmh WNW 8.1 mph13.0 kmh 29.38 in994.9 mb - 0.00 in0.0 mm 0.03 in0.8 mm
09:55 PM 35.6°F2.0°C 21.0°F-6.1°C 55% 6.9 mph WNW11.1 kmh WNW 6.9 mph11.1 kmh 29.38 in994.9 mb - 0.00 in0.0 mm 0.03 in0.8 mm
10:00 PM 35.4°F1.9°C 20.9°F-6.2°C 55% 5.8 mph WNW9.3 kmh WNW 5.8 mph9.3 kmh 29.39 in995.3 mb - 0.00 in0.0 mm 0.03 in0.8 mm
10:10 PM 35.7°F2.1°C 21.1°F-6.1°C 55% 6.9 mph WNW11.1 kmh WNW 8.1 mph13.0 kmh 29.39 in995.3 mb - 0.00 in0.0 mm 0.03 in0.8 mm
10:15 PM 35.8°F2.1°C 21.2°F-6.0°C 55% 8.1 mph WNW13.0 kmh WNW 10.4 mph16.7 kmh 29.39 in995.3 mb - 0.00 in0.0 mm 0.03 in0.8 mm
10:20 PM 36.0°F2.2°C 21.3°F-5.9°C 55% 5.8 mph WNW9.3 kmh WNW 8.1 mph13.0 kmh 29.39 in995.3 mb - 0.00 in0.0 mm 0.03 in0.8 mm
10:25 PM 36.0°F2.2°C 20.9°F-6.2°C 54% 6.9 mph NW11.1 kmh NW 8.1 mph13.0 kmh 29.39 in995.3 mb - 0.00 in0.0 mm 0.03 in0.8 mm
10:30 PM 36.0°F2.2°C 20.9°F-6.2°C 54% 4.6 mph WNW7.4 kmh WNW 5.8 mph9.3 kmh 29.39 in995.3 mb - 0.00 in0.0 mm 0.03 in0.8 mm
10:35 PM 35.9°F2.2°C 21.3°F-5.9°C 55% 5.8 mph NW9.3 kmh NW 10.4 mph16.7 kmh 29.39 in995.3 mb - 0.00 in0.0 mm 0.03 in0.8 mm
10:40 PM 35.6°F2.0°C 21.0°F-6.1°C 55% 4.6 mph NW7.4 kmh NW 4.6 mph7.4 kmh 29.39 in995.3 mb - 0.00 in0.0 mm 0.03 in0.8 mm
10:45 PM 35.2°F1.8°C 20.7°F-6.3°C 55% 5.8 mph WNW9.3 kmh WNW 8.1 mph13.0 kmh 29.39 in995.3 mb - 0.00 in0.0 mm 0.03 in0.8 mm
10:50 PM 35.1°F1.7°C 20.5°F-6.4°C 55% 6.9 mph WNW11.1 kmh WNW 8.1 mph13.0 kmh 29.39 in995.3 mb - 0.00 in0.0 mm 0.03 in0.8 mm
10:55 PM 34.9°F1.6°C 20.3°F-6.5°C 55% 5.8 mph W9.3 kmh W 4.6 mph7.4 kmh 29.39 in995.3 mb - 0.00 in0.0 mm 0.03 in0.8 mm
11:00 PM 34.6°F1.4°C 20.5°F-6.4°C 56% 4.6 mph WNW7.4 kmh WNW 4.6 mph7.4 kmh 29.40 in995.6 mb - 0.00 in0.0 mm 0.03 in0.8 mm
11:10 PM 34.3°F1.3°C 21.0°F-6.1°C 58% 4.6 mph NW7.4 kmh NW 4.6 mph7.4 kmh 29.40 in995.6 mb - 0.00 in0.0 mm 0.03 in0.8 mm
11:15 PM 34.0°F1.1°C 20.7°F-6.3°C 58% 5.8 mph NNW9.3 kmh NNW 6.9 mph11.1 kmh 29.40 in995.6 mb - 0.00 in0.0 mm 0.03 in0.8 mm
11:20 PM 34.2°F1.2°C 20.9°F-6.2°C 58% 5.8 mph WNW9.3 kmh WNW 8.1 mph13.0 kmh 29.40 in995.6 mb - 0.00 in0.0 mm 0.03 in0.8 mm
11:25 PM 34.2°F1.2°C 20.9°F-6.2°C 58% 8.1 mph WNW13.0 kmh WNW 6.9 mph11.1 kmh 29.40 in995.6 mb - 0.00 in0.0 mm 0.03 in0.8 mm
11:30 PM 34.3°F1.3°C 21.1°F-6.1°C 58% 6.9 mph WSW11.1 kmh WSW 9.2 mph14.8 kmh 29.41 in995.9 mb - 0.00 in0.0 mm 0.03 in0.8 mm
11:35 PM 34.3°F1.3°C 21.0°F-6.1°C 58% 4.6 mph WNW7.4 kmh WNW 6.9 mph11.1 kmh 29.41 in995.9 mb - 0.00 in0.0 mm 0.03 in0.8 mm
11:40 PM 34.5°F1.4°C 21.6°F-5.8°C 59% 5.8 mph WSW9.3 kmh WSW 10.4 mph16.7 kmh 29.41 in995.9 mb - 0.00 in0.0 mm 0.03 in0.8 mm
11:45 PM 34.2°F1.2°C 21.3°F-5.9°C 59% 5.8 mph WNW9.3 kmh WNW 10.4 mph16.7 kmh 29.42 in996.3 mb - 0.00 in0.0 mm 0.03 in0.8 mm
11:50 PM 34.2°F1.2°C 20.9°F-6.2°C 58% 8.1 mph NW13.0 kmh NW 10.4 mph16.7 kmh 29.42 in996.3 mb - 0.00 in0.0 mm 0.03 in0.8 mm
11:55 PM 34.3°F1.3°C 21.1°F-6.1°C 58% 6.9 mph NW11.1 kmh NW 9.2 mph14.8 kmh 29.42 in996.3 mb - 0.00 in0.0 mm 0.03 in0.8 mm